Pagrindinis puslapis
METAR-TAF:

METAR-TAF

Oro uostai :

Windham Airport

Willimantic, Konektikutas, Jungtinės Amerikos Valstijos

platuma: 41-44-31N, ilguma: 072-11-01W, Aukštis: 75 m

Dabartinis oras

Ataskaita buvo paskelbta 29 minutes, ne 06:52 UTC
Vėjas 9 kt iš Vakarų/Pietvakarių su gūsio iki 15 kt
Temperatūra -2°C
Drėgmė 39%
Slėgis 1007 hPa
Matomumas: 16.1 km
Mažai debesys ne aukštis 6500 ft

METAR: KIJD 280652Z AUTO 25009G15KT 10SM FEW065 M02/M14 A2974 RMK AO2 SLP071 T10221139

Laikas: 02:21 (07:21 UTC)


TAF: trūkstamas

Orai ataskaitas ir orų prognozės (METAR, TAF).

turimą stotys yra geltonos ir raudonos taškus žemėlapyje.

Perkelti pele per norėdami pamatyti stoties vardą.

Tada spustelėkite, norėdami matyti oro stebėjimo ir prognozės.

Norėdami pakeisti žemėlapį: spustelėkite ant žalios mygtukų su juodo kryžiaus žemyn,; žalią mygtuką su brūkšneliu, jei norite nutolinti; arba žalių rodyklių gretimoms žemėlapius.


METAR-TAF: